This is the latest recevied weather packets stored in our database for station/object IT9RID. If no packets are shown the sender has not sent any weather packets the latest 10 day(s).
| Time | Temp. | Humidity | Pressure | Rain* | Wind** | Luminosity | Snow |
|---|---|---|---|---|---|---|---|
| 1787508950 | 28.89° C | 70% | 1014.6 hPa | 0 mm | - | - | - |
| 1787508349 | 28.89° C | 69% | 1014.6 hPa | 0 mm | - | - | - |
| 1787507750 | 28.89° C | 68% | 1014.6 hPa | 0 mm | - | - | - |
| 1787507149 | 29.44° C | 68% | 1014.5 hPa | 0 mm | - | - | - |
| 1787506549 | 29.44° C | 67% | 1014.5 hPa | 0 mm | - | - | - |
| 1787505950 | 29.44° C | 66% | 1014.4 hPa | 0 mm | - | - | - |
| 1787505349 | 30° C | 66% | 1014.4 hPa | 0 mm | - | - | - |
| 1787504748 | 30° C | 66% | 1014.4 hPa | 0 mm | - | - | - |
| 1787504148 | 30.56° C | 63% | 1014.5 hPa | 0 mm | - | - | - |
| 1787503548 | 30.56° C | 61% | 1014.4 hPa | 0 mm | - | - | - |
| 1787502948 | 30.56° C | 62% | 1014.3 hPa | 0 mm | - | - | - |
| 1787502348 | 30.56° C | 60% | 1014.3 hPa | 0 mm | - | - | - |
| 1787501748 | 30.56° C | 62% | 1014.3 hPa | 0 mm | - | - | - |
| 1787501148 | 31.11° C | 60% | 1014.3 hPa | 0 mm | - | - | - |
| 1787500547 | 31.11° C | 60% | 1014.2 hPa | 0 mm | - | - | - |
| 1787499947 | 31.67° C | 59% | 1014.3 hPa | 0 mm | - | - | - |
| 1787499347 | 31.67° C | 59% | 1014.3 hPa | 0 mm | - | - | - |
| 1787498747 | 31.67° C | 60% | 1014.2 hPa | 0 mm | - | - | - |
| 1787498147 | 31.67° C | 58% | 1014.3 hPa | 0 mm | - | - | - |
| 1787497547 | 32.22° C | 55% | 1014.3 hPa | 0 mm | - | - | - |
| 1787496946 | 32.22° C | 55% | 1014.3 hPa | 0 mm | - | - | - |
| 1787496346 | 32.22° C | 56% | 1014.3 hPa | 0 mm | - | - | - |
| 1787495746 | 32.22° C | 55% | 1014.2 hPa | 0 mm | - | - | - |
| 1787495146 | 32.78° C | 54% | 1014.3 hPa | 0 mm | - | - | - |
| 1787494546 | 32.22° C | 56% | 1014.2 hPa | 0 mm | - | - | - |
* Rain latest hour (hover to see other rain measurements)
** Current wind speed in m/s (hover to see current wind gust speed)